createdAt,value
2023-02-28T00:00:59.122Z,102597.75
2023-02-28T00:03:27.219Z,102588.81
2023-02-28T00:05:54.988Z,102592.47
2023-02-28T00:08:24.269Z,102587.09
2023-02-28T00:10:52.100Z,102582.69
2023-02-28T00:13:19.933Z,102589.03
2023-02-28T00:15:47.911Z,102587.25
2023-02-28T00:18:15.771Z,102587.34
2023-02-28T00:20:43.505Z,102585.59
2023-02-28T00:23:11.409Z,102590.09
2023-02-28T00:25:40.543Z,102591.91
2023-02-28T00:28:08.340Z,102589.25
2023-02-28T00:30:36.192Z,102585.69
2023-02-28T00:33:06.329Z,102587.53
2023-02-28T00:35:34.119Z,102591.16
2023-02-28T00:38:01.891Z,102594.75
2023-02-28T00:40:29.868Z,102584.91
2023-02-28T00:42:59.074Z,102598.38
2023-02-28T00:45:27.052Z,102592.13
2023-02-28T00:47:54.842Z,102597.53
2023-02-28T00:50:22.852Z,102590.34
2023-02-28T00:52:50.612Z,102590.34
2023-02-28T00:55:19.537Z,102581.34
2023-02-28T00:57:47.360Z,102585.94
2023-02-28T01:00:17.526Z,102585.94
2023-02-28T01:02:45.378Z,102587.78
2023-02-28T01:05:13.267Z,102590.47
2023-02-28T01:07:41.055Z,102586.00
2023-02-28T01:10:10.502Z,102588.69
2023-02-28T01:12:38.286Z,102584.25
2023-02-28T01:15:07.048Z,102588.78
2023-02-28T01:17:36.206Z,102586.97
2023-02-28T01:20:04.982Z,102590.63
2023-02-28T01:22:32.743Z,102595.16
2023-02-28T01:25:00.498Z,102591.56
2023-02-28T01:27:29.387Z,102589.78
2023-02-28T01:29:57.150Z,102588.91
2023-02-28T01:32:24.996Z,102588.00
2023-02-28T01:34:54.083Z,102587.09
2023-02-28T01:37:21.792Z,102594.34
2023-02-28T01:39:49.545Z,102588.06
2023-02-28T01:42:17.240Z,102584.59
2023-02-28T01:45:05.628Z,102586.44
2023-02-28T01:47:36.771Z,102587.34
2023-02-28T01:50:09.544Z,102583.84
2023-02-28T01:52:38.067Z,102583.09
2023-02-28T01:55:09.770Z,102583.09
2023-02-28T01:57:42.480Z,102580.44
2023-02-28T02:00:15.290Z,102583.19
2023-02-28T02:02:51.410Z,102585.88
2023-02-28T02:05:22.820Z,102578.78
2023-02-28T02:07:54.339Z,102569.81
2023-02-28T02:10:26.598Z,102573.44
2023-02-28T02:13:16.117Z,102575.25
2023-02-28T02:15:50.921Z,102573.47
2023-02-28T02:18:29.199Z,102568.94
2023-02-28T02:21:42.969Z,102567.16
2023-02-28T02:24:36.195Z,102569.00
2023-02-28T02:27:18.494Z,102555.50
2023-02-28T02:30:22.608Z,102562.69
2023-02-28T02:33:18.761Z,102555.50
2023-02-28T02:35:56.506Z,102557.28
2023-02-28T02:38:35.225Z,102563.56
2023-02-28T02:41:12.090Z,102561.75
2023-02-28T02:43:47.393Z,102552.78
2023-02-28T02:46:19.750Z,102541.97
2023-02-28T02:48:48.952Z,102543.81
2023-02-28T02:51:20.947Z,102540.19
2023-02-28T02:53:52.894Z,102543.81
2023-02-28T02:56:25.223Z,102542.91
2023-02-28T02:58:56.739Z,102541.16
2023-02-28T03:01:29.756Z,102542.03
2023-02-28T03:04:00.182Z,102540.28
2023-02-28T03:06:29.415Z,102547.53
2023-02-28T03:08:57.260Z,102554.75
2023-02-28T03:11:25.312Z,102546.72
2023-02-28T03:14:28.177Z,102553.97
2023-02-28T03:17:12.015Z,102546.81
2023-02-28T03:19:56.691Z,102542.31
2023-02-28T03:22:50.400Z,102549.53
2023-02-28T03:25:24.407Z,102545.09
2023-02-28T03:28:02.277Z,102554.06
2023-02-28T03:30:35.916Z,102552.38
2023-02-28T03:33:10.793Z,102540.72
2023-02-28T03:35:42.734Z,102536.28
2023-02-28T03:38:16.508Z,102539.97
2023-02-28T03:40:49.612Z,102538.22
2023-02-28T03:43:24.759Z,102536.50
2023-02-28T03:45:54.080Z,102541.97
2023-02-28T03:48:25.884Z,102543.84
2023-02-28T03:50:57.383Z,102547.44
2023-02-28T03:53:30.198Z,102547.50
2023-02-28T03:56:02.373Z,102546.72
2023-02-28T03:58:38.474Z,102555.72
2023-02-28T04:01:11.264Z,102553.94
2023-02-28T04:03:40.277Z,102560.28
2023-02-28T04:06:10.443Z,102555.84
2023-02-28T04:08:39.730Z,102555.81
2023-02-28T04:11:14.915Z,102559.50
2023-02-28T04:13:42.784Z,102561.34
2023-02-28T04:16:18.737Z,102564.91
2023-02-28T04:18:49.448Z,102560.44
2023-02-28T04:21:21.424Z,102565.00
2023-02-28T04:23:50.604Z,102562.31
2023-02-28T04:26:18.319Z,102563.25
2023-02-28T04:28:46.198Z,102567.69
2023-02-28T04:31:13.927Z,102568.63
2023-02-28T04:33:41.680Z,102570.44
2023-02-28T04:36:10.774Z,102571.34
2023-02-28T04:38:40.395Z,102569.56
2023-02-28T04:41:09.469Z,102575.00
2023-02-28T04:43:37.433Z,102567.88
2023-02-28T04:46:06.786Z,102573.25
2023-02-28T04:48:36.528Z,102574.19
2023-02-28T04:51:05.218Z,102576.88
2023-02-28T04:53:33.769Z,102575.13
2023-02-28T04:56:01.663Z,102581.47
2023-02-28T04:58:30.943Z,102573.38
2023-02-28T05:01:04.445Z,102580.59
2023-02-28T05:03:32.305Z,102577.03
2023-02-28T05:05:59.986Z,102581.53
2023-02-28T05:08:30.663Z,102582.44
2023-02-28T05:10:58.394Z,102580.66
2023-02-28T05:13:26.226Z,102585.16
2023-02-28T05:15:55.685Z,102578.88
2023-02-28T05:18:23.471Z,102578.03
2023-02-28T05:20:51.282Z,102584.25
2023-02-28T05:23:21.986Z,102586.94
2023-02-28T05:25:49.807Z,102583.41
2023-02-28T05:28:17.507Z,102575.34
2023-02-28T05:30:45.280Z,102581.63
2023-02-28T05:33:14.914Z,102580.72
2023-02-28T05:35:43.568Z,102577.19
2023-02-28T05:38:11.378Z,102585.25
2023-02-28T05:40:40.872Z,102586.16
2023-02-28T05:43:12.653Z,102596.03
2023-02-28T05:45:40.375Z,102595.22
2023-02-28T05:48:08.299Z,102586.19
2023-02-28T05:50:37.484Z,102592.53
2023-02-28T05:53:05.455Z,102590.81
2023-02-28T05:55:33.278Z,102601.56
2023-02-28T05:58:01.392Z,102598.03
2023-02-28T06:00:29.185Z,102599.88
2023-02-28T06:02:58.987Z,102596.31
2023-02-28T06:05:26.849Z,102605.28
2023-02-28T06:07:55.981Z,102600.84
2023-02-28T06:10:23.793Z,102606.31
2023-02-28T06:12:51.673Z,102607.19
2023-02-28T06:15:19.511Z,102609.00
2023-02-28T06:17:47.983Z,102617.97
2023-02-28T06:20:15.845Z,102615.31
2023-02-28T06:22:43.794Z,102613.56
2023-02-28T06:25:13.315Z,102616.28
2023-02-28T06:27:41.113Z,102616.28
2023-02-28T06:30:10.066Z,102621.72
2023-02-28T06:32:37.808Z,102621.78
2023-02-28T06:35:06.325Z,102625.38
2023-02-28T06:37:34.559Z,102627.22
2023-02-28T06:40:02.311Z,102627.28
2023-02-28T06:42:31.953Z,102634.44
2023-02-28T06:45:00.348Z,102632.69
2023-02-28T06:47:28.087Z,102625.53
2023-02-28T06:49:55.935Z,102633.59
2023-02-28T06:52:23.998Z,102641.66
2023-02-28T06:55:00.626Z,102644.38
2023-02-28T06:57:32.472Z,102647.88
2023-02-28T07:00:00.927Z,102645.09
2023-02-28T07:02:29.026Z,102646.78
2023-02-28T07:04:56.831Z,102653.72
2023-02-28T07:07:24.603Z,102652.59
2023-02-28T07:09:52.539Z,102659.50
2023-02-28T07:12:20.317Z,102651.09
2023-02-28T07:14:49.476Z,102650.75
2023-02-28T07:17:18.146Z,102658.56
2023-02-28T07:19:45.944Z,102649.19
2023-02-28T07:22:15.791Z,102656.00
2023-02-28T07:24:43.756Z,102655.63
2023-02-28T07:27:11.510Z,102653.44
2023-02-28T07:29:39.572Z,102656.66
2023-02-28T07:32:08.752Z,102651.75
2023-02-28T07:34:36.679Z,102659.69
2023-02-28T07:37:06.035Z,102659.28
2023-02-28T07:39:33.828Z,102650.84
2023-02-28T07:42:04.695Z,102665.72
2023-02-28T07:44:33.662Z,102664.50
2023-02-28T07:47:01.462Z,102664.16
2023-02-28T07:49:30.627Z,102667.34
2023-02-28T07:51:58.369Z,102660.59
2023-02-28T07:54:26.174Z,102669.28
2023-02-28T07:56:54.267Z,102667.16
2023-02-28T07:59:22.379Z,102666.88
2023-02-28T08:01:51.294Z,102681.75
2023-02-28T08:04:19.613Z,102676.88
2023-02-28T08:06:48.820Z,102673.09
2023-02-28T08:09:16.642Z,102669.41
2023-02-28T08:11:44.532Z,102675.47
2023-02-28T08:14:12.420Z,102670.84
2023-02-28T08:16:40.314Z,102661.94
2023-02-28T08:19:08.117Z,102669.97
2023-02-28T08:21:35.928Z,102670.84
2023-02-28T08:24:05.295Z,102669.97
2023-02-28T08:26:33.086Z,102674.50
2023-02-28T08:29:01.693Z,102670.94
2023-02-28T08:31:29.895Z,102682.91
2023-02-28T08:33:59.818Z,102672.16
2023-02-28T08:36:29.920Z,102677.53
2023-02-28T08:38:58.898Z,102672.25
2023-02-28T08:41:28.677Z,102678.75
2023-02-28T08:43:56.595Z,102678.81
2023-02-28T08:46:25.504Z,102674.28
2023-02-28T08:48:54.729Z,102679.88
2023-02-28T08:51:27.893Z,102676.22
2023-02-28T08:53:57.013Z,102669.97
2023-02-28T08:56:24.755Z,102676.28
2023-02-28T08:58:56.190Z,102671.69
2023-02-28T09:01:26.083Z,102675.38
2023-02-28T09:03:53.927Z,102675.34
2023-02-28T09:06:24.371Z,102674.72
2023-02-28T09:08:52.403Z,102667.25
2023-02-28T09:11:20.874Z,102677.13
2023-02-28T09:13:48.821Z,102669.84
2023-02-28T09:16:19.121Z,102665.28
2023-02-28T09:18:47.185Z,102654.44
2023-02-28T09:21:17.655Z,102659.06
2023-02-28T09:23:46.658Z,102650.97
2023-02-28T09:26:16.599Z,102643.63
2023-02-28T09:28:44.489Z,102652.59
2023-02-28T09:31:16.907Z,102657.78
2023-02-28T09:33:46.147Z,102650.94
2023-02-28T09:36:13.867Z,102650.66
2023-02-28T09:38:41.739Z,102661.28
2023-02-28T09:41:15.758Z,102648.38
2023-02-28T09:43:48.697Z,102647.78
2023-02-28T09:46:27.918Z,102651.81
2023-02-28T09:48:59.111Z,102651.69
2023-02-28T09:51:39.745Z,102651.44
2023-02-28T09:54:07.686Z,102640.63
2023-02-28T09:56:40.782Z,102645.88
2023-02-28T09:59:18.269Z,102645.75
2023-02-28T10:01:54.441Z,102639.31
2023-02-28T10:04:39.055Z,102663.44
2023-02-28T10:07:18.821Z,102647.94
2023-02-28T10:09:49.220Z,102664.94
2023-02-28T10:12:18.495Z,102641.19
2023-02-28T10:14:49.364Z,102655.56
2023-02-28T10:17:21.940Z,102651.88
2023-02-28T10:20:01.542Z,102650.97
2023-02-28T10:22:35.453Z,102647.31
2023-02-28T10:25:08.220Z,102649.25
2023-02-28T10:27:36.170Z,102650.22
2023-02-28T10:30:05.043Z,102645.69
2023-02-28T10:32:35.657Z,102637.63
2023-02-28T10:35:16.411Z,102642.94
2023-02-28T10:37:46.814Z,102647.50
2023-02-28T10:40:31.984Z,102638.41
2023-02-28T10:43:01.844Z,102643.88
2023-02-28T10:45:32.892Z,102634.78
2023-02-28T10:48:03.752Z,102635.69
2023-02-28T10:50:39.140Z,102639.19
2023-02-28T10:53:25.304Z,102632.88
2023-02-28T10:55:59.943Z,102628.25
2023-02-28T10:58:29.646Z,102629.09
2023-02-28T11:00:57.556Z,102628.09
2023-02-28T11:03:34.060Z,102620.75
2023-02-28T11:06:09.983Z,102615.19
2023-02-28T11:08:47.416Z,102615.13
2023-02-28T11:11:15.762Z,102616.97
2023-02-28T11:13:43.581Z,102623.16
2023-02-28T11:16:14.095Z,102624.03
2023-02-28T11:18:46.076Z,102616.78
2023-02-28T11:21:23.301Z,102614.91
2023-02-28T11:23:54.371Z,102613.13
2023-02-28T11:26:42.604Z,102617.63
2023-02-28T11:29:21.839Z,102613.13
2023-02-28T11:32:06.667Z,102620.34
2023-02-28T11:34:34.843Z,102624.94
2023-02-28T11:37:05.925Z,102623.94
2023-02-28T11:39:34.407Z,102623.00
2023-02-28T11:42:33.954Z,102629.41
2023-02-28T11:45:18.948Z,102630.28
2023-02-28T11:47:51.043Z,102625.84
2023-02-28T11:50:28.690Z,102612.56
2023-02-28T11:53:02.233Z,102624.44
2023-02-28T11:55:37.685Z,102624.47
2023-02-28T11:58:18.854Z,102618.25
2023-02-28T12:01:05.709Z,102613.91
2023-02-28T12:03:46.661Z,102611.19
2023-02-28T12:06:24.617Z,102610.25
2023-02-28T12:09:04.974Z,102609.25
2023-02-28T12:11:46.147Z,102595.59
2023-02-28T12:14:44.566Z,102599.00
2023-02-28T12:17:23.105Z,102594.38
2023-02-28T12:20:01.807Z,102590.59
2023-02-28T12:22:32.535Z,102587.78
2023-02-28T12:25:24.170Z,102584.97
2023-02-28T12:27:55.123Z,102582.13
2023-02-28T12:30:27.125Z,102583.06
2023-02-28T12:32:58.873Z,102583.53
2023-02-28T12:35:34.172Z,102570.84
2023-02-28T12:38:07.557Z,102564.38
2023-02-28T12:40:52.695Z,102568.81
2023-02-28T12:43:22.917Z,102563.09
2023-02-28T12:45:55.601Z,102553.84
2023-02-28T12:48:30.469Z,102545.66
2023-02-28T12:50:59.108Z,102539.03
2023-02-28T12:53:33.221Z,102542.00
2023-02-28T12:56:18.191Z,102536.53
2023-02-28T12:58:50.239Z,102531.69
2023-02-28T13:01:44.620Z,102524.06
2023-02-28T13:04:40.518Z,102521.47
2023-02-28T13:07:33.979Z,102515.56
2023-02-28T13:10:04.516Z,102524.38
2023-02-28T13:12:34.489Z,102502.44
2023-02-28T13:15:13.468Z,102511.25
2023-02-28T13:17:43.185Z,102507.63
2023-02-28T13:20:19.084Z,102504.69
2023-02-28T13:22:49.153Z,102502.84
2023-02-28T13:25:54.505Z,102503.22
2023-02-28T13:29:02.237Z,102493.03
2023-02-28T13:31:34.037Z,102488.41
2023-02-28T13:34:17.764Z,102500.09
2023-02-28T13:36:45.655Z,102484.84
2023-02-28T13:39:48.893Z,102488.88
2023-02-28T13:42:37.999Z,102486.19
2023-02-28T13:45:27.552Z,102493.28
2023-02-28T13:48:01.475Z,102492.47
2023-02-28T13:50:32.847Z,102496.69
2023-02-28T13:53:36.130Z,102488.03
2023-02-28T13:56:11.979Z,102480.72
2023-02-28T13:58:51.434Z,102479.72
2023-02-28T14:01:34.550Z,102480.09
2023-02-28T14:04:33.829Z,102482.56
2023-02-28T14:07:02.886Z,102477.47
2023-02-28T14:09:34.037Z,102464.09
2023-02-28T14:12:35.110Z,102460.25
2023-02-28T14:15:03.288Z,102458.59
2023-02-28T14:17:31.197Z,102463.84
2023-02-28T14:20:00.737Z,102465.78
2023-02-28T14:22:50.027Z,102468.28
2023-02-28T14:25:25.870Z,102461.84
2023-02-28T14:28:10.873Z,102460.34
2023-02-28T14:30:59.138Z,102454.63
2023-02-28T14:33:43.348Z,102463.44
2023-02-28T14:36:20.394Z,102454.28
2023-02-28T14:38:54.172Z,102456.25
2023-02-28T14:41:25.142Z,102453.38
2023-02-28T14:43:58.575Z,102449.66
2023-02-28T14:46:31.201Z,102452.38
2023-02-28T14:48:59.217Z,102446.28
2023-02-28T14:51:28.432Z,102449.66
2023-02-28T14:54:00.980Z,102446.28
2023-02-28T14:56:34.886Z,102445.50
2023-02-28T14:59:02.878Z,102442.03
2023-02-28T15:01:32.140Z,102445.19
2023-02-28T15:04:03.713Z,102447.97
2023-02-28T15:06:34.439Z,102442.41
2023-02-28T15:09:10.555Z,102444.13
2023-02-28T15:11:40.828Z,102444.31
2023-02-28T15:14:08.904Z,102436.34
2023-02-28T15:16:40.563Z,102439.75
2023-02-28T15:19:15.409Z,102446.28
2023-02-28T15:21:48.286Z,102433.91
2023-02-28T15:24:24.547Z,102445.91
2023-02-28T15:26:57.035Z,102442.25
2023-02-28T15:29:27.006Z,102435.84
2023-02-28T15:31:59.608Z,102443.09
2023-02-28T15:34:43.027Z,102437.91
2023-02-28T15:37:41.257Z,102436.03
2023-02-28T15:40:19.808Z,102428.09
2023-02-28T15:43:01.297Z,102432.47
2023-02-28T15:45:41.876Z,102430.47
2023-02-28T15:48:19.492Z,102429.63
2023-02-28T15:50:50.903Z,102433.16
2023-02-28T15:53:21.761Z,102433.53
2023-02-28T15:55:57.734Z,102438.53
2023-02-28T15:58:26.566Z,102429.72
2023-02-28T16:01:09.020Z,102446.63
2023-02-28T16:03:42.808Z,102435.88
2023-02-28T16:06:32.976Z,102431.59
2023-02-28T16:09:00.773Z,102438.84
2023-02-28T16:11:31.684Z,102439.91
2023-02-28T16:13:59.848Z,102441.66
2023-02-28T16:16:28.670Z,102452.53
2023-02-28T16:18:56.843Z,102441.09
2023-02-28T16:21:25.393Z,102457.41
2023-02-28T16:23:53.235Z,102442.84
2023-02-28T16:26:25.269Z,102455.88
2023-02-28T16:28:55.164Z,102452.16
2023-02-28T16:31:22.987Z,102460.50
2023-02-28T16:33:50.747Z,102460.34
2023-02-28T16:36:21.318Z,102463.25
2023-02-28T16:38:49.381Z,102468.75
2023-02-28T16:41:21.313Z,102468.69
2023-02-28T16:43:50.775Z,102475.94
2023-02-28T16:46:20.604Z,102468.13
2023-02-28T16:48:52.275Z,102465.56
2023-02-28T16:51:20.587Z,102478.09
2023-02-28T16:53:49.760Z,102488.28
2023-02-28T16:56:20.671Z,102482.13
2023-02-28T16:58:49.704Z,102487.69
2023-02-28T17:01:22.881Z,102486.78
2023-02-28T17:03:51.771Z,102492.50
2023-02-28T17:06:22.972Z,102496.19
2023-02-28T17:08:51.056Z,102490.81
2023-02-28T17:11:19.549Z,102497.03
2023-02-28T17:13:48.388Z,102501.72
2023-02-28T17:16:23.524Z,102498.94
2023-02-28T17:18:52.495Z,102507.03
2023-02-28T17:21:20.201Z,102513.56
2023-02-28T17:23:48.201Z,102505.38
2023-02-28T17:26:20.854Z,102512.78
2023-02-28T17:28:48.884Z,102515.59
2023-02-28T17:31:17.142Z,102515.59
2023-02-28T17:33:46.472Z,102522.78
2023-02-28T17:36:16.732Z,102529.16
2023-02-28T17:38:44.670Z,102529.25
2023-02-28T17:41:12.893Z,102531.06
2023-02-28T17:43:40.907Z,102532.00
2023-02-28T17:46:17.612Z,102540.13
2023-02-28T17:48:46.881Z,102536.72
2023-02-28T17:51:15.060Z,102537.69
2023-02-28T17:53:43.014Z,102542.19
2023-02-28T17:56:15.511Z,102542.28
2023-02-28T17:58:43.667Z,102538.88
2023-02-28T18:01:12.839Z,102544.25
2023-02-28T18:03:41.156Z,102544.31
2023-02-28T18:06:17.181Z,102546.00
2023-02-28T18:08:45.209Z,102547.94
2023-02-28T18:11:18.266Z,102549.72
2023-02-28T18:13:47.762Z,102540.72
2023-02-28T18:16:16.602Z,102539.81
2023-02-28T18:18:44.796Z,102541.75
2023-02-28T18:21:15.904Z,102540.75
2023-02-28T18:23:48.325Z,102542.78
2023-02-28T18:26:17.345Z,102544.56
2023-02-28T18:28:45.769Z,102538.22
2023-02-28T18:31:16.253Z,102548.22
2023-02-28T18:33:44.176Z,102535.59
2023-02-28T18:36:13.347Z,102550.97
2023-02-28T18:38:41.705Z,102548.25
2023-02-28T18:41:09.454Z,102549.25
2023-02-28T18:43:39.110Z,102552.94
2023-02-28T18:46:09.044Z,102553.84
2023-02-28T18:48:37.320Z,102561.13
2023-02-28T18:51:09.888Z,102557.47
2023-02-28T18:53:40.131Z,102554.97
2023-02-28T18:56:10.356Z,102555.03
2023-02-28T18:58:38.150Z,102557.81
2023-02-28T19:01:17.264Z,102559.50
2023-02-28T19:03:45.327Z,102562.34
2023-02-28T19:06:13.149Z,102553.31
2023-02-28T19:08:42.394Z,102553.28
2023-02-28T19:11:10.856Z,102550.56
2023-02-28T19:13:38.818Z,102549.72
2023-02-28T19:16:08.892Z,102548.75
2023-02-28T19:18:37.623Z,102552.41
2023-02-28T19:21:07.547Z,102543.34
2023-02-28T19:23:36.064Z,102549.81
2023-02-28T19:26:08.826Z,102552.41
2023-02-28T19:28:36.995Z,102550.75
2023-02-28T19:31:04.727Z,102556.09
2023-02-28T19:33:33.193Z,102554.25
2023-02-28T19:36:02.249Z,102561.53
2023-02-28T19:38:30.032Z,102557.97
2023-02-28T19:41:01.809Z,102568.75
2023-02-28T19:43:31.807Z,102570.63
2023-02-28T19:46:00.353Z,102571.59
2023-02-28T19:48:28.477Z,102577.06
2023-02-28T19:51:00.131Z,102582.44
2023-02-28T19:53:28.132Z,102587.06
2023-02-28T19:55:56.400Z,102587.06
2023-02-28T19:58:24.567Z,102582.59
2023-02-28T20:00:53.974Z,102585.28
2023-02-28T20:03:21.908Z,102586.22
2023-02-28T20:06:00.575Z,102581.66
2023-02-28T20:08:28.541Z,102582.66
2023-02-28T20:10:56.284Z,102578.22
2023-02-28T20:13:27.981Z,102577.34
2023-02-28T20:16:00.332Z,102576.53
2023-02-28T20:18:28.173Z,102577.53
2023-02-28T20:20:55.986Z,102586.66
2023-02-28T20:23:23.902Z,102576.75
2023-02-28T20:25:52.444Z,102577.78
2023-02-28T20:28:20.972Z,102576.94
2023-02-28T20:30:49.270Z,102574.28
2023-02-28T20:33:19.313Z,102577.97
2023-02-28T20:35:49.131Z,102572.63
2023-02-28T20:38:16.939Z,102577.19
2023-02-28T20:40:44.742Z,102576.34
2023-02-28T20:43:12.487Z,102583.59
2023-02-28T20:45:40.312Z,102576.44
2023-02-28T20:48:08.140Z,102572.00
2023-02-28T20:50:37.287Z,102572.94
2023-02-28T20:53:05.043Z,102575.72
2023-02-28T20:55:32.816Z,102566.75
2023-02-28T20:58:00.549Z,102562.41
2023-02-28T21:00:28.311Z,102566.97
2023-02-28T21:02:56.121Z,102558.97
2023-02-28T21:05:24.297Z,102554.50
2023-02-28T21:07:53.500Z,102567.22
2023-02-28T21:10:21.358Z,102558.28
2023-02-28T21:12:53.458Z,102563.81
2023-02-28T21:15:22.781Z,102563.03
2023-02-28T21:17:50.675Z,102564.06
2023-02-28T21:20:22.046Z,102561.41
2023-02-28T21:22:49.962Z,102567.84
2023-02-28T21:25:19.490Z,102567.88
2023-02-28T21:27:48.063Z,102569.81
2023-02-28T21:30:16.034Z,102568.09
2023-02-28T21:32:43.866Z,102579.03
2023-02-28T21:35:11.589Z,102576.34
2023-02-28T21:37:39.878Z,102574.69
2023-02-28T21:40:08.981Z,102579.19
2023-02-28T21:42:38.167Z,102584.69
2023-02-28T21:45:06.926Z,102582.03
2023-02-28T21:47:34.782Z,102579.41
2023-02-28T21:50:02.531Z,102581.28
2023-02-28T21:52:30.326Z,102575.00
2023-02-28T21:54:58.153Z,102582.28
2023-02-28T21:57:26.011Z,102578.69
2023-02-28T21:59:55.277Z,102575.13
2023-02-28T22:02:23.104Z,102582.41
2023-02-28T22:04:50.960Z,102573.38
2023-02-28T22:07:19.142Z,102575.22
2023-02-28T22:09:46.835Z,102574.41
2023-02-28T22:12:14.667Z,102576.22
2023-02-28T22:14:44.703Z,102569.03
2023-02-28T22:17:13.846Z,102570.81
2023-02-28T22:19:41.833Z,102571.84
2023-02-28T22:22:09.963Z,102571.03
2023-02-28T22:24:37.705Z,102580.94
2023-02-28T22:27:05.526Z,102581.88
2023-02-28T22:29:33.311Z,102579.19
2023-02-28T22:32:01.127Z,102580.13
2023-02-28T22:34:30.365Z,102565.81
2023-02-28T22:36:58.282Z,102576.63
2023-02-28T22:39:26.158Z,102574.06
2023-02-28T22:41:55.792Z,102582.22
2023-02-28T22:44:23.927Z,102580.47
2023-02-28T22:46:54.803Z,102586.81
2023-02-28T22:49:22.660Z,102576.13
2023-02-28T22:51:51.887Z,102580.66
2023-02-28T22:54:19.686Z,102581.63
2023-02-28T22:56:47.531Z,102577.19
2023-02-28T22:59:16.094Z,102572.72
2023-02-28T23:01:44.726Z,102577.34
2023-02-28T23:04:12.919Z,102580.03
2023-02-28T23:06:43.071Z,102580.13
2023-02-28T23:09:15.249Z,102573.84
2023-02-28T23:11:45.414Z,102575.75
2023-02-28T23:14:15.114Z,102571.22
2023-02-28T23:16:45.482Z,102570.34
2023-02-28T23:19:15.910Z,102573.03
2023-02-28T23:21:44.465Z,102574.84
2023-02-28T23:24:15.729Z,102569.47
2023-02-28T23:26:44.952Z,102575.84
2023-02-28T23:29:13.181Z,102566.00
2023-02-28T23:31:41.607Z,102560.59
2023-02-28T23:34:09.955Z,102562.47
2023-02-28T23:36:39.065Z,102564.34
2023-02-28T23:39:07.256Z,102570.69
2023-02-28T23:41:36.374Z,102582.41
2023-02-28T23:44:04.120Z,102583.44
2023-02-28T23:46:32.196Z,102582.56
2023-02-28T23:49:00.450Z,102584.38
2023-02-28T23:51:28.232Z,102588.97
2023-02-28T23:53:55.987Z,102590.81
2023-02-28T23:56:25.096Z,102593.47
2023-02-28T23:58:56.284Z,102599.91
